Time;durP1;ratioP1;P1;durP2;ratioP2;P2;SDS_P1;SDS_P2;PMS_P1;PMS_P2;Temp;Humidity;BMP_temperature;BMP_pressure;BME280_temperature;BME280_humidity;BME280_pressure;Samples;Min_cycle;Max_cycle;Signal;HPM_P1;HPM_P2
2022/02/22 00:01:57;;;;;;;22.40;3.47;;;5.10;99.90;;;;;;5010485;28;20190;-81
2022/02/22 00:04:22;;;;;;;12.10;2.40;;;5.00;99.90;;;;;;5035788;28;20860;-81
2022/02/22 00:06:48;;;;;;;11.60;2.93;;;5.00;99.90;;;;;;5018484;28;20533;-81
2022/02/22 00:09:13;;;;;;;14.73;3.60;;;5.10;99.90;;;;;;5036309;28;20182;-81
2022/02/22 00:11:42;;;;;;;15.30;3.73;;;5.20;99.90;;;;;;5036197;28;20197;-81
2022/02/22 00:14:07;;;;;;;13.80;3.40;;;4.70;99.90;;;;;;5036019;28;20574;-81
2022/02/22 00:16:33;;;;;;;17.37;2.10;;;5.20;99.90;;;;;;5036322;28;20417;-80
2022/02/22 00:18:58;;;;;;;11.63;2.83;;;5.10;99.90;;;;;;5036195;28;20198;-81
2022/02/22 00:21:23;;;;;;;12.33;2.73;;;5.10;99.90;;;;;;5036155;28;20705;-80
2022/02/22 00:23:49;;;;;;;21.27;4.73;;;5.10;99.90;;;;;;5018300;28;20174;-81
2022/02/22 00:26:14;;;;;;;15.13;2.77;;;5.10;99.90;;;;;;5036091;28;20232;-81
2022/02/22 00:28:40;;;;;;;23.57;2.90;;;5.10;99.90;;;;;;5035959;28;20243;-81
2022/02/22 00:31:05;;;;;;;15.53;1.43;;;5.20;99.90;;;;;;5035646;28;20623;-82
2022/02/22 00:33:32;;;;;;;19.23;3.50;;;5.30;99.90;;;;;;5018159;28;20171;-81
2022/02/22 00:35:57;;;;;;;11.57;2.43;;;5.30;99.90;;;;;;5035848;28;20646;-81
2022/02/22 00:38:23;;;;;;;12.07;3.43;;;5.30;99.90;;;;;;5035751;28;20410;-82
2022/02/22 00:40:48;;;;;;;27.50;3.70;;;5.30;99.90;;;;;;5034501;28;20634;-81
2022/02/22 00:43:14;;;;;;;13.30;4.70;;;5.20;99.90;;;;;;5035695;28;20492;-82
2022/02/22 00:45:40;;;;;;;15.73;2.77;;;5.10;99.90;;;;;;5035507;28;20166;-82
2022/02/22 00:48:06;;;;;;;10.17;2.70;;;5.10;99.90;;;;;;5035674;28;20515;-82
2022/02/22 00:50:33;;;;;;;15.37;2.80;;;5.00;99.90;;;;;;5017859;28;20214;-83
2022/02/22 00:52:59;;;;;;;15.50;4.10;;;5.00;99.90;;;;;;5035630;28;20498;-82
2022/02/22 00:55:25;;;;;;;18.50;4.40;;;5.00;99.90;;;;;;5035573;28;20933;-82
2022/02/22 00:57:52;;;;;;;17.57;2.97;;;5.20;99.90;;;;;;5035480;28;20189;-83
2022/02/22 01:00:20;;;;;;;14.80;2.77;;;5.20;99.90;;;;;;5035195;28;20271;-82
2022/02/22 01:02:47;;;;;;;21.47;4.60;;;5.20;99.90;;;;;;5001335;28;20901;-82
2022/02/22 01:05:15;;;;;;;18.60;4.60;;;5.20;99.90;;;;;;5017021;28;20516;-82
2022/02/22 01:07:41;;;;;;;14.40;2.70;;;5.00;99.90;;;;;;5035291;28;20841;-82
2022/02/22 01:10:08;;;;;;;15.80;2.80;;;4.80;99.90;;;;;;5035105;28;20496;-82
2022/02/22 01:12:33;;;;;;;21.90;3.33;;;4.70;99.90;;;;;;5035168;28;20231;-82
2022/02/22 01:14:59;;;;;;;11.47;2.50;;;4.70;99.90;;;;;;5034787;28;20405;-82
2022/02/22 01:17:24;;;;;;;24.43;4.50;;;4.80;99.90;;;;;;5035002;28;20217;-82
2022/02/22 01:19:50;;;;;;;13.07;2.87;;;4.70;99.90;;;;;;5035021;28;20257;-82
2022/02/22 01:22:16;;;;;;;10.60;2.50;;;4.80;99.90;;;;;;5035030;28;20173;-82
2022/02/22 01:24:41;;;;;;;11.37;1.83;;;4.70;99.90;;;;;;5035005;28;20158;-82
2022/02/22 01:27:07;;;;;;;11.50;2.40;;;4.70;99.90;;;;;;5034932;28;20474;-82
2022/02/22 01:29:33;;;;;;;9.33;2.20;;;4.70;99.90;;;;;;5034489;28;20228;-82
2022/02/22 01:31:59;;;;;;;16.77;3.40;;;4.70;99.90;;;;;;5017066;28;20170;-83
2022/02/22 01:34:24;;;;;;;9.00;1.23;;;4.70;99.90;;;;;;5034761;28;20423;-83
2022/02/22 01:36:50;;;;;;;10.30;3.30;;;4.70;99.90;;;;;;5034664;28;20421;-83
2022/02/22 01:39:15;;;;;;;11.20;1.90;;;4.60;99.90;;;;;;5034714;28;20177;-82
2022/02/22 01:41:46;;;;;;;13.33;2.20;;;4.70;99.90;;;;;;5034682;28;20173;-82
2022/02/22 01:44:14;;;;;;;12.03;2.20;;;4.70;99.90;;;;;;5033957;28;20741;-82
2022/02/22 01:46:40;;;;;;;18.60;2.80;;;4.70;99.90;;;;;;5034602;28;20483;-82
2022/02/22 01:49:08;;;;;;;13.60;2.70;;;4.70;99.90;;;;;;5034423;28;20909;-82
2022/02/22 01:51:34;;;;;;;15.57;2.80;;;4.60;99.90;;;;;;5015960;28;20709;-82
2022/02/22 01:53:59;;;;;;;12.90;2.90;;;4.50;99.90;;;;;;5034237;28;20409;-82
2022/02/22 01:56:25;;;;;;;19.13;2.80;;;4.60;99.90;;;;;;5034497;28;20209;-81
2022/02/22 01:58:51;;;;;;;7.40;3.57;;;4.60;99.90;;;;;;5034062;28;20643;-81
2022/02/22 02:01:19;;;;;;;19.67;5.07;;;4.60;99.90;;;;;;5034131;28;20205;-81
2022/02/22 02:03:45;;;;;;;16.70;2.60;;;4.70;99.90;;;;;;5034178;28;20537;-81
2022/02/22 02:06:12;;;;;;;21.20;3.60;;;4.70;99.90;;;;;;5034303;28;20412;-81
2022/02/22 02:08:37;;;;;;;14.53;2.57;;;4.70;99.90;;;;;;5034401;28;20202;-81
2022/02/22 02:11:10;;;;;;;14.80;4.80;;;4.80;99.90;;;;;;5034066;28;21015;-81
2022/02/22 02:13:35;;;;;;;12.30;3.27;;;4.80;99.90;;;;;;5033514;28;20178;-81
2022/02/22 02:16:01;;;;;;;14.40;3.17;;;4.80;99.90;;;;;;5034006;28;20486;-81
2022/02/22 02:18:26;;;;;;;11.50;3.13;;;4.80;99.90;;;;;;5033935;28;20540;-80
2022/02/22 02:20:52;;;;;;;14.87;2.50;;;4.90;99.90;;;;;;5033796;28;20203;-80
2022/02/22 02:23:17;;;;;;;17.37;2.80;;;4.90;99.90;;;;;;5033828;28;20178;-81
2022/02/22 02:25:45;;;;;;;11.70;2.93;;;5.00;99.90;;;;;;5033901;28;20192;-80
2022/02/22 02:28:10;;;;;;;14.70;2.77;;;5.00;99.90;;;;;;5033774;28;20915;-80
2022/02/22 02:30:36;;;;;;;11.60;3.60;;;5.00;99.90;;;;;;5033052;28;20484;-80
2022/02/22 02:33:01;;;;;;;20.63;3.47;;;4.80;99.90;;;;;;5015894;28;20174;-80
2022/02/22 02:35:27;;;;;;;16.43;3.37;;;4.60;99.90;;;;;;5033649;28;20513;-80
2022/02/22 02:38:01;;;;;;;15.13;3.00;;;4.40;99.90;;;;;;5033594;28;20178;-81
2022/02/22 02:40:27;;;;;;;12.20;2.73;;;4.50;99.90;;;;;;5033517;28;20169;-81
2022/02/22 02:42:52;;;;;;;20.70;3.67;;;4.50;99.90;;;;;;5033320;28;20955;-81
2022/02/22 02:45:22;;;;;;;11.77;3.03;;;4.60;99.90;;;;;;5015652;28;20631;-81
2022/02/22 02:47:47;;;;;;;14.33;2.87;;;4.60;99.90;;;;;;5033443;28;20177;-81
2022/02/22 02:50:13;;;;;;;10.87;3.27;;;4.70;99.90;;;;;;5033337;28;20465;-81
2022/02/22 02:52:38;;;;;;;13.60;4.70;;;4.70;99.90;;;;;;5034149;28;20526;-81
2022/02/22 02:55:04;;;;;;;36.30;5.33;;;4.60;99.90;;;;;;5016688;28;20181;-81
2022/02/22 02:57:30;;;;;;;18.70;3.70;;;4.60;99.90;;;;;;5033693;28;20182;-81
2022/02/22 02:59:56;;;;;;;17.10;3.20;;;4.70;99.90;;;;;;5025987;28;20437;-81
2022/02/22 03:02:22;;;;;;;19.60;4.37;;;4.60;99.90;;;;;;5035352;28;20780;-81
2022/02/22 03:04:48;;;;;;;19.07;4.33;;;4.60;99.90;;;;;;5032596;28;20419;-82
2022/02/22 03:07:13;;;;;;;10.53;2.97;;;4.50;99.90;;;;;;5015552;28;20172;-81
2022/02/22 03:09:39;;;;;;;13.50;2.97;;;4.50;99.90;;;;;;5033116;28;20670;-82
2022/02/22 03:12:05;;;;;;;11.77;2.53;;;4.60;99.90;;;;;;5033048;28;20520;-81
2022/02/22 03:14:33;;;;;;;16.07;3.07;;;4.60;99.90;;;;;;5032615;28;20170;-81
2022/02/22 03:16:58;;;;;;;15.83;3.60;;;4.60;99.90;;;;;;5033066;28;20479;-81
2022/02/22 03:19:24;;;;;;;17.80;2.60;;;4.50;99.90;;;;;;5032904;28;20423;-82
2022/02/22 03:21:49;;;;;;;20.13;3.90;;;4.50;99.90;;;;;;5030485;28;20178;-81
2022/02/22 03:24:15;;;;;;;13.20;2.60;;;4.40;99.90;;;;;;5029544;28;20269;-81
2022/02/22 03:26:40;;;;;;;20.53;3.27;;;4.40;99.90;;;;;;5021228;28;20190;-81
2022/02/22 03:29:06;;;;;;;13.60;2.57;;;4.30;99.90;;;;;;5012603;28;20171;-81
2022/02/22 03:31:31;;;;;;;18.07;3.53;;;4.30;99.90;;;;;;5021175;28;20213;-80
2022/02/22 03:33:58;;;;;;;15.87;3.20;;;4.90;99.90;;;;;;5022141;28;20224;-81
2022/02/22 03:36:27;;;;;;;20.47;3.57;;;4.50;99.90;;;;;;5029939;28;20184;-80
2022/02/22 03:38:54;;;;;;;10.77;2.70;;;4.60;99.90;;;;;;5024881;28;20420;-81
2022/02/22 03:41:20;;;;;;;18.33;4.10;;;4.60;99.90;;;;;;5022194;28;20420;-81
2022/02/22 03:43:45;;;;;;;12.40;3.20;;;4.80;99.90;;;;;;5021031;28;20464;-81
2022/02/22 03:46:11;;;;;;;10.37;3.30;;;4.80;99.90;;;;;;5005828;28;20178;-81
2022/02/22 03:48:37;;;;;;;20.83;4.27;;;4.80;99.90;;;;;;5021927;28;20226;-81
2022/02/22 03:51:02;;;;;;;10.63;5.27;;;4.80;99.90;;;;;;5025088;28;20317;-81
2022/02/22 03:53:28;;;;;;;14.40;3.03;;;4.80;99.90;;;;;;5026727;28;20687;-81
2022/02/22 03:55:54;;;;;;;18.13;3.77;;;4.60;99.90;;;;;;5023366;28;20201;-81
2022/02/22 03:58:20;;;;;;;12.60;2.67;;;4.50;99.90;;;;;;5023064;28;20169;-80
2022/02/22 04:00:45;;;;;;;10.83;3.23;;;4.60;99.90;;;;;;5023022;28;20406;-81
2022/02/22 04:03:11;;;;;;;16.60;3.17;;;4.60;99.90;;;;;;5025778;28;20546;-82
2022/02/22 04:05:37;;;;;;;19.03;5.30;;;4.60;99.90;;;;;;5020586;28;20253;-81
2022/02/22 04:08:03;;;;;;;18.03;4.70;;;4.60;99.90;;;;;;5022587;28;20465;-81
2022/02/22 04:10:29;;;;;;;19.70;3.83;;;4.70;99.90;;;;;;5020942;28;20211;-81
2022/02/22 04:12:57;;;;;;;20.80;4.50;;;4.90;99.90;;;;;;4989052;28;20432;-82
2022/02/22 04:15:22;;;;;;;17.30;4.00;;;4.90;99.90;;;;;;5027901;28;20646;-81
2022/02/22 04:17:48;;;;;;;11.60;3.20;;;4.90;99.90;;;;;;5009783;28;20412;-81
2022/02/22 04:20:14;;;;;;;12.70;3.43;;;4.90;99.90;;;;;;5026599;28;20179;-83
2022/02/22 04:22:40;;;;;;;18.20;3.40;;;4.80;99.90;;;;;;5025436;28;20240;-82
2022/02/22 04:25:06;;;;;;;9.37;1.77;;;4.70;99.90;;;;;;5029914;28;20174;-82
2022/02/22 04:27:32;;;;;;;11.90;2.37;;;4.60;99.90;;;;;;5006741;28;20434;-81
2022/02/22 04:29:58;;;;;;;11.53;2.67;;;4.50;99.90;;;;;;5026847;28;20455;-81
2022/02/22 04:32:23;;;;;;;11.80;2.60;;;4.50;99.90;;;;;;5027077;28;20480;-81
2022/02/22 04:34:49;;;;;;;11.47;2.70;;;4.50;99.90;;;;;;5023696;28;20542;-80
2022/02/22 04:37:16;;;;;;;17.70;2.33;;;4.50;99.90;;;;;;5025666;28;20170;-79
2022/02/22 04:39:46;;;;;;;17.60;4.07;;;4.60;99.90;;;;;;5016014;28;20616;-79
2022/02/22 04:42:12;;;;;;;15.30;2.93;;;4.80;99.90;;;;;;5015904;28;21292;-80
2022/02/22 04:44:40;;;;;;;13.90;3.53;;;4.80;99.90;;;;;;5015461;28;20545;-81
2022/02/22 04:47:08;;;;;;;13.83;3.50;;;4.90;99.90;;;;;;5015798;28;20171;-80
2022/02/22 04:49:34;;;;;;;14.60;3.10;;;4.90;99.90;;;;;;5015648;28;20528;-81
2022/02/22 04:52:00;;;;;;;9.53;2.73;;;4.90;99.90;;;;;;5015826;28;20518;-80
2022/02/22 04:54:26;;;;;;;20.27;3.53;;;5.10;99.90;;;;;;4998301;28;20179;-80
2022/02/22 04:56:52;;;;;;;18.03;3.30;;;4.90;99.90;;;;;;5015708;28;20521;-81
2022/02/22 04:59:17;;;;;;;18.67;2.67;;;5.00;99.90;;;;;;5018744;28;20182;-81
2022/02/22 05:01:43;;;;;;;15.33;2.83;;;5.00;99.90;;;;;;5029549;28;20190;-81
2022/02/22 05:04:11;;;;;;;4.83;1.40;;;4.70;99.90;;;;;;5026619;28;20670;-82
2022/02/22 05:06:39;;;;;;;11.13;1.30;;;4.90;99.90;;;;;;5029381;28;20640;-81
2022/02/22 05:09:05;;;;;;;11.80;3.00;;;4.50;99.90;;;;;;5032356;28;20805;-81
2022/02/22 05:11:31;;;;;;;17.30;3.10;;;4.50;99.90;;;;;;5035063;28;20472;-80
2022/02/22 05:13:56;;;;;;;6.83;2.50;;;4.50;99.90;;;;;;5034740;28;20418;-81
2022/02/22 05:16:22;;;;;;;15.50;2.70;;;4.30;99.90;;;;;;5026264;28;20613;-81
2022/02/22 05:18:47;;;;;;;12.07;2.10;;;4.30;99.90;;;;;;5023027;28;20651;-82
2022/02/22 05:21:13;;;;;;;9.57;1.80;;;4.30;99.90;;;;;;5015218;28;20644;-82
2022/02/22 05:23:39;;;;;;;9.60;2.00;;;4.40;99.90;;;;;;5015211;28;20257;-81
2022/02/22 05:26:06;;;;;;;11.43;1.80;;;4.50;99.90;;;;;;5015162;28;20257;-81
2022/02/22 05:28:32;;;;;;;10.60;2.10;;;4.50;99.90;;;;;;5014098;28;20195;-80
2022/02/22 05:30:58;;;;;;;12.10;2.13;;;4.50;99.90;;;;;;5014894;28;20839;-80
2022/02/22 05:33:25;;;;;;;5.93;1.33;;;4.40;99.90;;;;;;5014970;28;20746;-81
2022/02/22 05:35:52;;;;;;;6.47;1.50;;;4.40;99.90;;;;;;5014951;28;20476;-81
2022/02/22 05:38:18;;;;;;;12.37;1.83;;;4.30;99.90;;;;;;5014983;28;20777;-81
2022/02/22 05:40:44;;;;;;;7.83;1.40;;;4.30;99.90;;;;;;5017395;28;20438;-81
2022/02/22 05:43:10;;;;;;;8.17;1.30;;;4.40;99.90;;;;;;5028728;28;20473;-82
2022/02/22 05:45:36;;;;;;;15.43;2.00;;;4.30;99.90;;;;;;5034481;28;20432;-82
2022/02/22 05:48:03;;;;;;;13.17;1.97;;;4.30;99.90;;;;;;5034517;28;20422;-81
2022/02/22 05:50:28;;;;;;;14.07;3.10;;;4.30;99.90;;;;;;5034351;28;20232;-82
2022/02/22 05:52:57;;;;;;;4.30;0.90;;;4.40;99.90;;;;;;5034420;28;20423;-82
2022/02/22 05:55:26;;;;;;;12.40;1.87;;;4.40;99.90;;;;;;5034352;28;20170;-82
2022/02/22 05:57:52;;;;;;;10.67;2.13;;;4.40;99.90;;;;;;5033847;28;20791;-81
2022/02/22 06:00:19;;;;;;;14.67;2.13;;;4.40;99.90;;;;;;5034250;28;20432;-81
2022/02/22 06:02:45;;;;;;;13.30;1.60;;;4.50;99.90;;;;;;5034075;28;20422;-82
2022/02/22 06:05:14;;;;;;;15.10;4.00;;;4.50;99.90;;;;;;5033964;28;20780;-82
2022/02/22 06:07:39;;;;;;;11.13;1.40;;;4.50;99.90;;;;;;5016342;28;20460;-83
2022/02/22 06:10:06;;;;;;;14.17;1.80;;;4.60;99.90;;;;;;5033946;28;20892;-83
2022/02/22 06:12:31;;;;;;;14.50;1.53;;;4.60;99.90;;;;;;5033505;28;20205;-82
2022/02/22 06:14:57;;;;;;;7.60;1.90;;;4.70;99.90;;;;;;5021264;28;20452;-80
2022/02/22 06:17:23;;;;;;;5.17;1.70;;;4.60;99.90;;;;;;5023365;28;20232;-80
2022/02/22 06:19:49;;;;;;;7.93;1.50;;;4.40;99.90;;;;;;5022740;28;20256;-80
2022/02/22 06:22:14;;;;;;;11.17;1.90;;;4.40;99.90;;;;;;5021784;28;20257;-81
2022/02/22 06:24:41;;;;;;;8.37;1.63;;;4.30;99.90;;;;;;5030181;28;21032;-81
2022/02/22 06:27:06;;;;;;;11.70;2.07;;;4.30;99.90;;;;;;5033413;28;20256;-84
2022/02/22 06:29:33;;;;;;;13.90;1.90;;;4.30;99.90;;;;;;5031914;28;20520;-84
2022/02/22 06:31:58;;;;;;;15.10;2.93;;;4.40;99.90;;;;;;5032353;28;20174;-81
2022/02/22 06:34:24;;;;;;;9.43;2.90;;;4.40;99.90;;;;;;5031793;28;20432;-82
2022/02/22 06:36:50;;;;;;;11.60;1.73;;;4.50;99.90;;;;;;5033274;28;20185;-82
2022/02/22 06:39:15;;;;;;;15.07;2.60;;;4.50;99.90;;;;;;5032440;28;20231;-84
2022/02/22 06:41:41;;;;;;;12.00;3.83;;;4.70;99.90;;;;;;5032349;28;20177;-83
2022/02/22 06:44:06;;;;;;;22.27;3.63;;;4.70;99.90;;;;;;5032102;28;20242;-83
2022/02/22 06:46:32;;;;;;;11.80;3.17;;;4.80;99.90;;;;;;5033482;28;20189;-82
2022/02/22 06:48:58;;;;;;;15.43;2.80;;;4.80;99.90;;;;;;5033349;28;20186;-81
2022/02/22 06:51:23;;;;;;;18.13;3.53;;;4.90;99.90;;;;;;5033173;28;20658;-81
2022/02/22 06:53:49;;;;;;;15.27;3.47;;;5.00;99.90;;;;;;5014720;28;20186;-83
2022/02/22 06:56:14;;;;;;;13.50;2.87;;;5.00;99.90;;;;;;5033284;28;20239;-81
2022/02/22 06:58:40;;;;;;;14.10;3.90;;;5.10;99.90;;;;;;5032825;28;20635;-81
2022/02/22 07:01:05;;;;;;;15.57;2.40;;;5.10;99.90;;;;;;5033342;28;20540;-81
2022/02/22 07:03:31;;;;;;;13.73;2.73;;;5.20;99.90;;;;;;5033142;28;20189;-82
2022/02/22 07:05:56;;;;;;;16.03;3.70;;;5.40;99.90;;;;;;5015474;28;20179;-82
2022/02/22 07:08:22;;;;;;;18.03;2.53;;;5.50;99.90;;;;;;5031869;28;20180;-83
2022/02/22 07:10:51;;;;;;;14.50;2.87;;;5.50;99.90;;;;;;5032896;28;20214;-82
2022/02/22 07:13:16;;;;;;;14.83;2.03;;;5.60;99.90;;;;;;5032794;28;20170;-82
2022/02/22 07:15:45;;;;;;;7.60;1.93;;;5.70;99.90;;;;;;5033094;28;20934;-82
2022/02/22 07:18:10;;;;;;;13.83;3.23;;;5.50;99.90;;;;;;5033054;28;20162;-82
2022/02/22 07:20:36;;;;;;;14.80;3.90;;;5.50;99.90;;;;;;5033040;28;20524;-82
2022/02/22 07:23:05;;;;;;;6.33;1.53;;;5.50;99.90;;;;;;5016251;28;20564;-83
2022/02/22 07:25:31;;;;;;;12.80;2.00;;;5.50;99.90;;;;;;5015186;28;20428;-81
2022/02/22 07:28:01;;;;;;;15.60;3.13;;;5.50;99.90;;;;;;5032521;28;20944;-82
2022/02/22 07:30:28;;;;;;;16.07;3.10;;;5.50;99.90;;;;;;5032869;28;20881;-82
2022/02/22 07:32:56;;;;;;;18.40;3.47;;;5.60;99.90;;;;;;5032832;28;20416;-82
2022/02/22 07:35:21;;;;;;;9.77;2.10;;;5.80;99.90;;;;;;5032763;28;20414;-82
2022/02/22 07:37:47;;;;;;;12.83;2.83;;;6.00;99.90;;;;;;5032857;28;20926;-82
2022/02/22 07:40:18;;;;;;;10.57;2.00;;;6.10;99.90;;;;;;5032871;28;20172;-82
2022/02/22 07:42:44;;;;;;;8.97;2.83;;;6.10;99.90;;;;;;5032334;28;20180;-81
2022/02/22 07:45:11;;;;;;;10.70;2.20;;;6.00;99.90;;;;;;5032764;28;20501;-81
2022/02/22 07:47:36;;;;;;;8.30;2.97;;;5.90;99.90;;;;;;5032478;28;20437;-81
2022/02/22 07:50:04;;;;;;;16.70;3.07;;;6.10;99.90;;;;;;5032237;28;20470;-82
2022/02/22 07:52:31;;;;;;;10.93;1.80;;;6.10;99.90;;;;;;5035549;28;20593;-82
2022/02/22 07:54:57;;;;;;;11.40;2.97;;;6.00;99.90;;;;;;5017523;28;20516;-81
2022/02/22 07:57:23;;;;;;;12.37;2.97;;;5.90;99.90;;;;;;5018252;28;20509;-81
2022/02/22 07:59:49;;;;;;;16.40;2.20;;;5.90;99.90;;;;;;5018745;28;20425;-84
2022/02/22 08:02:15;;;;;;;10.70;2.60;;;6.20;99.90;;;;;;5036577;28;20405;-82
2022/02/22 08:04:41;;;;;;;8.00;1.83;;;6.60;99.90;;;;;;5036515;28;20180;-81
2022/02/22 08:07:10;;;;;;;12.30;2.93;;;6.60;99.90;;;;;;5036212;28;20256;-81
2022/02/22 08:09:37;;;;;;;8.63;1.73;;;6.70;99.90;;;;;;5035572;28;20540;-80
2022/02/22 08:12:03;;;;;;;19.53;3.33;;;6.50;99.90;;;;;;5035791;28;20429;-81
2022/02/22 08:14:29;;;;;;;10.37;2.83;;;6.50;99.90;;;;;;5035837;28;20418;-81
2022/02/22 08:16:59;;;;;;;7.33;0.83;;;6.60;99.90;;;;;;5036060;28;20479;-81
2022/02/22 08:19:31;;;;;;;14.60;4.23;;;6.50;99.90;;;;;;5036100;28;20180;-81
2022/02/22 08:21:57;;;;;;;16.53;3.30;;;6.40;99.90;;;;;;5036135;28;20488;-81
2022/02/22 08:24:24;;;;;;;9.90;2.20;;;6.30;99.90;;;;;;5036202;28;20416;-80
2022/02/22 08:26:56;;;;;;;9.47;1.53;;;6.30;99.90;;;;;;5028425;28;20179;-81
2022/02/22 08:29:23;;;;;;;8.03;3.00;;;6.30;99.90;;;;;;5035264;28;20422;-80
2022/02/22 08:31:49;;;;;;;7.80;1.90;;;6.40;99.90;;;;;;5036170;28;20919;-81
2022/02/22 08:34:15;;;;;;;16.33;3.13;;;6.60;99.90;;;;;;5033297;28;20910;-81
2022/02/22 08:36:40;;;;;;;10.47;2.40;;;7.50;99.90;;;;;;5035350;28;20518;-81
2022/02/22 08:39:06;;;;;;;20.17;3.40;;;7.70;99.90;;;;;;5035279;28;20664;-81
2022/02/22 08:41:31;;;;;;;19.53;2.90;;;7.10;99.90;;;;;;5035144;28;20187;-81
2022/02/22 08:43:57;;;;;;;10.07;1.97;;;7.00;99.90;;;;;;5035181;28;20236;-81
2022/02/22 08:46:29;;;;;;;16.70;2.17;;;7.40;99.90;;;;;;5032148;28;20185;-81
2022/02/22 08:48:54;;;;;;;12.60;2.80;;;7.50;99.90;;;;;;5024332;28;20184;-83
2022/02/22 08:51:20;;;;;;;20.07;2.90;;;8.30;99.90;;;;;;5032998;28;20473;-81
2022/02/22 08:53:46;;;;;;;14.33;3.00;;;7.90;99.90;;;;;;5031190;28;20193;-83
2022/02/22 08:56:12;;;;;;;10.03;2.20;;;;;;;;;;5034608;28;20197;-80
2022/02/22 08:58:37;;;;;;;11.97;2.70;;;9.30;99.90;;;;;;5034704;28;20192;-82
2022/02/22 09:01:12;;;;;;;13.97;2.70;;;8.40;99.90;;;;;;5017401;28;20420;-81
2022/02/22 09:03:37;;;;;;;12.80;1.30;;;8.70;99.90;;;;;;5034433;28;20177;-82
2022/02/22 09:06:03;;;;;;;8.60;1.40;;;8.70;99.90;;;;;;5035081;28;20776;-85
2022/02/22 09:08:29;;;;;;;14.90;2.40;;;9.40;99.90;;;;;;5033331;28;20174;-87
2022/02/22 09:10:55;;;;;;;13.23;1.70;;;9.00;99.90;;;;;;5034236;28;20297;-86
2022/02/22 09:13:21;;;;;;;9.90;2.67;;;8.70;99.90;;;;;;5001684;28;20187;-86
2022/02/22 09:15:49;;;;;;;14.60;2.50;;;8.70;99.90;;;;;;5008591;28;21072;-81
2022/02/22 09:18:15;;;;;;;8.70;2.37;;;8.10;99.90;;;;;;5014894;28;20824;-81
2022/02/22 09:20:41;;;;;;;18.27;2.87;;;10.40;99.90;;;;;;5015051;28;20418;-81
2022/02/22 09:23:07;;;;;;;6.37;1.70;;;11.90;1.00;;;;;;5014804;28;20557;-82
2022/02/22 09:25:33;;;;;;;6.70;1.50;;;10.40;1.00;;;;;;5016198;28;20177;-82
2022/02/22 09:28:04;;;;;;;10.37;2.27;;;10.10;1.00;;;;;;5015482;28;20422;-82
2022/02/22 09:30:31;;;;;;;11.50;1.70;;;9.90;1.00;;;;;;5019588;28;20530;-82
2022/02/22 09:32:57;;;;;;;20.67;3.30;;;10.40;1.00;;;;;;5018667;28;20461;-85
2022/02/22 09:35:24;;;;;;;9.60;2.10;;;9.80;1.00;;;;;;5041742;28;20433;-88
2022/02/22 09:37:51;;;;;;;13.10;2.77;;;10.30;1.00;;;;;;5020293;28;20179;-87
2022/02/22 09:40:17;;;;;;;13.80;1.40;;;9.50;1.00;;;;;;5036313;28;20424;-86
2022/02/22 09:42:43;;;;;;;11.50;1.40;;;9.70;1.00;;;;;;5015730;28;20518;-86
2022/02/22 09:45:10;;;;;;;13.07;2.67;;;9.50;1.00;;;;;;5032477;28;20442;-86
2022/02/22 09:47:36;;;;;;;11.57;2.80;;;10.10;1.00;;;;;;5016397;28;20409;-89
2022/02/22 09:50:03;;;;;;;11.13;2.60;;;11.20;1.00;;;;;;5034199;28;20563;-87
2022/02/22 09:52:30;;;;;;;7.77;2.50;;;11.30;1.00;;;;;;5033325;28;20519;-88
2022/02/22 09:54:59;;;;;;;16.73;3.37;;;11.10;1.00;;;;;;5033660;28;20827;-85
2022/02/22 09:57:24;;;;;;;11.83;1.90;;;10.90;1.00;;;;;;5017605;28;20918;-89
2022/02/22 09:59:50;;;;;;;11.17;2.10;;;11.10;1.00;;;;;;5006575;28;20435;-87
2022/02/22 10:02:16;;;;;;;13.83;2.80;;;11.40;1.00;;;;;;5033700;28;20175;-89
2022/02/22 10:04:49;;;;;;;11.27;2.27;;;11.20;1.00;;;;;;5033516;28;20166;-88
2022/02/22 10:07:15;;;;;;;13.53;3.37;;;11.50;1.00;;;;;;5015477;28;20265;-86
2022/02/22 10:09:55;;;;;;;10.87;2.27;;;11.60;1.00;;;;;;5033036;28;20556;-86
2022/02/22 10:12:31;;;;;;;17.60;3.17;;;11.30;1.00;;;;;;5032110;28;20496;-87
2022/02/22 10:14:58;;;;;;;7.10;2.03;;;10.80;1.00;;;;;;5008847;28;20449;-87
2022/02/22 10:17:25;;;;;;;8.27;1.90;;;10.20;1.00;;;;;;5015211;28;20428;-87
2022/02/22 10:20:01;;;;;;;11.00;2.93;;;9.80;1.00;;;;;;5015737;28;20428;-86
2022/02/22 10:22:27;;;;;;;7.00;1.43;;;9.70;1.00;;;;;;5033679;28;20446;-87
2022/02/22 10:25:02;;;;;;;11.53;1.40;;;9.70;99.90;;;;;;5033491;28;20455;-88
2022/02/22 10:27:28;;;;;;;12.30;1.63;;;9.70;1.00;;;;;;5032878;28;20250;-86
2022/02/22 10:29:55;;;;;;;14.40;2.17;;;10.00;1.00;;;;;;5033040;28;20554;-84
2022/02/22 10:32:24;;;;;;;11.67;1.67;;;10.10;1.00;;;;;;5032994;28;20175;-86
2022/02/22 10:34:51;;;;;;;9.77;1.80;;;10.20;1.00;;;;;;5015165;28;20417;-86
2022/02/22 10:37:17;;;;;;;6.47;1.83;;;10.70;1.00;;;;;;5032116;28;20436;-85
2022/02/22 10:39:42;;;;;;;16.23;3.07;;;11.00;1.00;;;;;;5014405;28;20832;-84
2022/02/22 10:42:08;;;;;;;8.93;1.80;;;10.70;1.00;;;;;;5033595;28;20189;-87
2022/02/22 10:44:39;;;;;;;8.70;2.47;;;10.40;1.00;;;;;;5040351;28;20286;-87
2022/02/22 10:47:19;;;;;;;12.23;3.00;;;11.20;1.00;;;;;;5004630;28;20220;-86
2022/02/22 10:49:48;;;;;;;13.63;2.47;;;11.10;1.00;;;;;;5004765;28;20460;-85
2022/02/22 10:52:13;;;;;;;14.60;3.20;;;10.70;1.00;;;;;;5015182;28;21003;-88
2022/02/22 10:54:41;;;;;;;9.20;1.80;;;11.10;1.00;;;;;;5032613;28;20420;-85
2022/02/22 10:57:07;;;;;;;8.03;2.07;;;10.80;1.00;;;;;;5030921;28;20209;-85
2022/02/22 10:59:34;;;;;;;9.77;2.00;;;10.60;1.00;;;;;;5030017;28;21435;-87
2022/02/22 11:02:00;;;;;;;15.97;2.70;;;10.10;1.00;;;;;;5032230;28;20587;-87
2022/02/22 11:04:28;;;;;;;8.63;1.83;;;10.00;1.00;;;;;;5032847;28;20411;-88
2022/02/22 11:06:54;;;;;;;13.53;2.57;;;9.90;1.00;;;;;;5032891;28;20256;-87
2022/02/22 11:09:21;;;;;;;7.00;2.50;;;10.10;1.00;;;;;;5033218;28;20448;-87
2022/02/22 11:12:06;;;;;;;12.80;2.37;;;10.00;1.00;;;;;;5041179;28;20208;-85
2022/02/22 11:14:34;;;;;;;10.40;2.17;;;10.00;1.00;;;;;;5020096;28;20935;-86
2022/02/22 11:17:13;;;;;;;9.93;2.47;;;9.80;1.00;;;;;;5046271;28;20419;-87
2022/02/22 11:19:40;;;;;;;11.43;1.90;;;10.10;1.00;;;;;;5040324;28;20451;-86
2022/02/22 11:22:08;;;;;;;9.77;0.87;;;10.50;1.00;;;;;;5017985;28;20439;-86
2022/02/22 11:25:13;;;;;;;14.23;2.40;;;10.70;1.00;;;;;;5031557;28;20420;-85
2022/02/22 11:27:42;;;;;;;15.03;2.90;;;10.40;1.00;;;;;;5028546;28;20438;-85
2022/02/22 11:30:14;;;;;;;9.53;2.30;;;10.10;1.00;;;;;;5032568;28;20467;-85
2022/02/22 11:32:54;;;;;;;11.83;2.60;;;9.80;1.00;;;;;;5032479;28;20424;-86
2022/02/22 11:35:20;;;;;;;17.00;3.20;;;9.60;1.00;;;;;;5032468;28;20438;-84
2022/02/22 11:37:46;;;;;;;8.47;2.00;;;9.40;1.00;;;;;;5032296;28;20917;-85
2022/02/22 11:40:26;;;;;;;18.47;3.80;;;9.30;1.00;;;;;;5032141;28;20173;-87
2022/02/22 11:43:02;;;;;;;7.90;2.13;;;9.30;1.00;;;;;;5031962;28;20472;-87
2022/02/22 11:45:28;;;;;;;13.53;1.97;;;9.50;1.00;;;;;;5032220;28;20454;-86
2022/02/22 11:48:26;;;;;;;10.70;2.63;;;9.60;1.00;;;;;;5032453;28;20836;-88
2022/02/22 11:50:57;;;;;;;15.13;2.47;;;9.50;1.00;;;;;;5011697;28;20709;-86
2022/02/22 11:53:31;;;;;;;12.70;1.90;;;9.20;1.00;;;;;;4996268;28;20803;-89
2022/02/22 11:56:00;;;;;;;10.07;1.93;;;9.40;1.00;;;;;;5024734;28;20401;-86
2022/02/22 11:58:30;;;;;;;7.30;1.43;;;9.70;1.00;;;;;;5014283;28;20423;-87
2022/02/22 12:01:06;;;;;;;5.60;1.77;;;9.60;1.00;;;;;;5012301;28;20454;-86
2022/02/22 12:03:41;;;;;;;9.67;2.47;;;9.40;1.00;;;;;;5031779;28;20464;-86
2022/02/22 12:06:09;;;;;;;10.90;1.50;;;9.40;1.00;;;;;;5032692;28;20457;-88
2022/02/22 12:08:40;;;;;;;9.57;2.03;;;9.40;1.00;;;;;;5014490;28;20965;-87
2022/02/22 12:11:14;;;;;;;12.50;2.27;;;9.40;1.00;;;;;;5014497;28;20506;-89
2022/02/22 12:13:42;;;;;;;10.30;2.13;;;9.40;1.00;;;;;;5014608;28;20765;-88
2022/02/22 12:16:19;;;;;;;9.73;1.57;;;9.40;1.00;;;;;;5014721;28;21085;-88
2022/02/22 12:18:46;;;;;;;11.00;2.27;;;9.20;99.90;;;;;;5032157;28;20406;-87
2022/02/22 12:21:13;;;;;;;8.90;1.53;;;9.20;99.90;;;;;;5032053;28;20411;-88
2022/02/22 12:23:42;;;;;;;9.83;1.77;;;9.40;99.90;;;;;;5032261;28;20417;-88
2022/02/22 12:26:10;;;;;;;11.63;2.03;;;9.40;99.90;;;;;;5015310;28;20438;-89
2022/02/22 12:28:48;;;;;;;12.37;2.17;;;9.40;99.90;;;;;;5033061;28;20423;-88
2022/02/22 12:31:34;;;;;;;7.43;2.43;;;9.30;99.90;;;;;;5031827;28;20471;-88
2022/02/22 12:34:15;;;;;;;10.47;2.20;;;9.20;99.90;;;;;;5014074;28;20508;-88
2022/02/22 12:36:46;;;;;;;8.07;2.20;;;9.20;99.90;;;;;;5033032;28;20440;-87
2022/02/22 12:39:17;;;;;;;9.60;2.07;;;8.90;99.90;;;;;;5035429;28;20414;-87
2022/02/22 12:41:49;;;;;;;10.30;2.83;;;9.00;99.90;;;;;;5035013;28;20410;-87
2022/02/22 12:44:17;;;;;;;12.30;2.20;;;8.80;99.90;;;;;;5017268;28;20471;-87
2022/02/22 12:46:44;;;;;;;11.80;2.10;;;8.60;99.90;;;;;;5034929;28;20825;-88
2022/02/22 12:49:13;;;;;;;8.47;1.17;;;8.70;99.90;;;;;;5034983;28;20773;-88
2022/02/22 12:51:39;;;;;;;6.90;1.27;;;8.70;99.90;;;;;;5016741;28;20470;-86